sensor_id;sensor_type;location;lat;lon;timestamp;pressure;altitude;pressure_sealevel;temperature;humidity
61026;BME280;46911;32.650;-16.902;2022-12-08T00:00:53;100262.06;;;17.65;69.82
61026;BME280;46911;32.650;-16.902;2022-12-08T00:02:54;100265.28;;;17.69;70.46
61026;BME280;46911;32.650;-16.902;2022-12-08T00:04:54;100266.41;;;17.58;70.98
61026;BME280;46911;32.650;-16.902;2022-12-08T00:07:14;100277.19;;;17.58;72.05
61026;BME280;46911;32.650;-16.902;2022-12-08T00:09:39;100285.44;;;17.56;73.78
61026;BME280;46911;32.650;-16.902;2022-12-08T00:13:50;100269.88;;;17.42;76.21
61026;BME280;46911;32.650;-16.902;2022-12-08T00:15:50;100269.25;;;17.22;75.67
61026;BME280;46911;32.650;-16.902;2022-12-08T00:17:54;100254.28;;;17.01;75.99
61026;BME280;46911;32.650;-16.902;2022-12-08T00:19:56;100263.38;;;17.00;76.21
61026;BME280;46911;32.650;-16.902;2022-12-08T00:21:58;100251.59;;;16.83;76.75
61026;BME280;46911;32.650;-16.902;2022-12-08T00:24:05;100243.63;;;16.92;76.50
61026;BME280;46911;32.650;-16.902;2022-12-08T00:26:06;100241.06;;;16.90;75.45
61026;BME280;46911;32.650;-16.902;2022-12-08T00:28:07;100252.81;;;17.07;74.97
61026;BME280;46911;32.650;-16.902;2022-12-08T00:30:12;100245.88;;;17.04;74.99
61026;BME280;46911;32.650;-16.902;2022-12-08T00:32:13;100250.59;;;17.02;74.99
61026;BME280;46911;32.650;-16.902;2022-12-08T00:34:16;100254.06;;;17.21;74.65
61026;BME280;46911;32.650;-16.902;2022-12-08T00:36:19;100243.28;;;17.21;74.41
61026;BME280;46911;32.650;-16.902;2022-12-08T00:38:23;100227.81;;;17.23;74.78
61026;BME280;46911;32.650;-16.902;2022-12-08T00:40:28;100240.66;;;17.29;74.66
61026;BME280;46911;32.650;-16.902;2022-12-08T00:42:29;100238.13;;;17.28;74.90
61026;BME280;46911;32.650;-16.902;2022-12-08T00:44:35;100218.53;;;17.17;74.49
61026;BME280;46911;32.650;-16.902;2022-12-08T00:46:36;100226.81;;;17.24;74.37
61026;BME280;46911;32.650;-16.902;2022-12-08T00:48:37;100221.97;;;17.28;73.97
61026;BME280;46911;32.650;-16.902;2022-12-08T00:50:38;100213.19;;;17.26;73.01
61026;BME280;46911;32.650;-16.902;2022-12-08T00:52:38;100212.19;;;17.27;72.35
61026;BME280;46911;32.650;-16.902;2022-12-08T00:54:39;100218.72;;;17.24;71.45
61026;BME280;46911;32.650;-16.902;2022-12-08T00:56:42;100217.41;;;17.28;70.74
61026;BME280;46911;32.650;-16.902;2022-12-08T00:58:43;100200.59;;;17.34;70.66
61026;BME280;46911;32.650;-16.902;2022-12-08T01:00:44;100192.31;;;17.28;70.60
61026;BME280;46911;32.650;-16.902;2022-12-08T01:02:47;100206.69;;;17.45;70.05
61026;BME280;46911;32.650;-16.902;2022-12-08T01:04:48;100195.88;;;17.36;70.36
61026;BME280;46911;32.650;-16.902;2022-12-08T01:06:49;100207.75;;;17.52;69.33
61026;BME280;46911;32.650;-16.902;2022-12-08T01:08:50;100195.13;;;17.61;68.67
61026;BME280;46911;32.650;-16.902;2022-12-08T01:10:53;100211.13;;;17.62;68.36
61026;BME280;46911;32.650;-16.902;2022-12-08T01:12:59;100207.78;;;17.68;68.60
61026;BME280;46911;32.650;-16.902;2022-12-08T01:15:02;100205.97;;;17.77;68.51
61026;BME280;46911;32.650;-16.902;2022-12-08T01:17:06;100202.22;;;17.70;68.87
61026;BME280;46911;32.650;-16.902;2022-12-08T01:19:08;100177.47;;;17.74;68.51
61026;BME280;46911;32.650;-16.902;2022-12-08T01:21:09;100189.47;;;17.80;68.40
61026;BME280;46911;32.650;-16.902;2022-12-08T01:23:15;100190.97;;;17.83;68.56
61026;BME280;46911;32.650;-16.902;2022-12-08T01:25:16;100186.06;;;17.78;69.03
61026;BME280;46911;32.650;-16.902;2022-12-08T01:27:20;100190.63;;;17.78;69.39
61026;BME280;46911;32.650;-16.902;2022-12-08T01:29:23;100172.88;;;17.59;70.21
61026;BME280;46911;32.650;-16.902;2022-12-08T01:31:26;100190.59;;;17.61;70.45
61026;BME280;46911;32.650;-16.902;2022-12-08T01:33:28;100181.63;;;17.61;69.88
61026;BME280;46911;32.650;-16.902;2022-12-08T01:35:29;100183.66;;;17.59;70.68
61026;BME280;46911;32.650;-16.902;2022-12-08T01:37:33;100181.09;;;17.57;70.28
61026;BME280;46911;32.650;-16.902;2022-12-08T01:39:34;100183.69;;;17.67;70.10
61026;BME280;46911;32.650;-16.902;2022-12-08T01:41:37;100180.19;;;17.74;69.41
61026;BME280;46911;32.650;-16.902;2022-12-08T01:46:04;100165.66;;;17.67;69.69
61026;BME280;46911;32.650;-16.902;2022-12-08T01:48:11;100168.88;;;17.71;70.29
61026;BME280;46911;32.650;-16.902;2022-12-08T01:50:19;100160.22;;;17.59;70.14
61026;BME280;46911;32.650;-16.902;2022-12-08T01:52:28;100170.03;;;17.60;70.46
61026;BME280;46911;32.650;-16.902;2022-12-08T01:54:35;100191.91;;;17.57;72.03
61026;BME280;46911;32.650;-16.902;2022-12-08T01:57:00;100187.19;;;17.51;72.44
61026;BME280;46911;32.650;-16.902;2022-12-08T01:59:02;100183.94;;;17.47;71.05
61026;BME280;46911;32.650;-16.902;2022-12-08T02:01:08;100185.47;;;17.50;70.15
61026;BME280;46911;32.650;-16.902;2022-12-08T02:03:24;100191.22;;;17.47;71.04
61026;BME280;46911;32.650;-16.902;2022-12-08T02:05:32;100186.78;;;17.37;71.57
61026;BME280;46911;32.650;-16.902;2022-12-08T02:07:34;100193.72;;;17.40;70.83
61026;BME280;46911;32.650;-16.902;2022-12-08T02:09:36;100191.38;;;17.45;70.66
61026;BME280;46911;32.650;-16.902;2022-12-08T02:11:38;100185.44;;;17.42;70.02
61026;BME280;46911;32.650;-16.902;2022-12-08T02:13:45;100193.91;;;17.47;69.63
61026;BME280;46911;32.650;-16.902;2022-12-08T02:16:02;100204.00;;;17.45;69.86
61026;BME280;46911;32.650;-16.902;2022-12-08T02:18:20;100208.75;;;17.51;71.95
61026;BME280;46911;32.650;-16.902;2022-12-08T02:27:19;100190.50;;;16.84;78.04
61026;BME280;46911;32.650;-16.902;2022-12-08T02:35:14;100199.38;;;16.58;78.23
61026;BME280;46911;32.650;-16.902;2022-12-08T02:37:20;100192.84;;;16.61;77.19
61026;BME280;46911;32.650;-16.902;2022-12-08T02:42:27;100189.22;;;16.70;76.53
61026;BME280;46911;32.650;-16.902;2022-12-08T02:44:32;100189.38;;;16.68;76.87
61026;BME280;46911;32.650;-16.902;2022-12-08T02:46:46;100190.91;;;16.71;76.78
61026;BME280;46911;32.650;-16.902;2022-12-08T02:48:48;100185.06;;;16.76;77.34
61026;BME280;46911;32.650;-16.902;2022-12-08T02:50:50;100172.38;;;16.68;77.77
61026;BME280;46911;32.650;-16.902;2022-12-08T02:52:51;100193.16;;;16.76;78.06
61026;BME280;46911;32.650;-16.902;2022-12-08T02:55:02;100179.97;;;16.72;78.70
61026;BME280;46911;32.650;-16.902;2022-12-08T03:04:45;100183.78;;;16.88;80.37
61026;BME280;46911;32.650;-16.902;2022-12-08T03:07:05;100208.31;;;17.03;79.80
61026;BME280;46911;32.650;-16.902;2022-12-08T03:11:46;100180.88;;;17.07;75.88
61026;BME280;46911;32.650;-16.902;2022-12-08T03:13:52;100174.47;;;17.00;75.95
61026;BME280;46911;32.650;-16.902;2022-12-08T03:15:58;100176.13;;;16.93;76.04
61026;BME280;46911;32.650;-16.902;2022-12-08T03:18:05;100171.56;;;16.94;75.81
61026;BME280;46911;32.650;-16.902;2022-12-08T03:20:13;100185.28;;;17.09;75.17
61026;BME280;46911;32.650;-16.902;2022-12-08T03:22:21;100182.38;;;17.02;75.10
61026;BME280;46911;32.650;-16.902;2022-12-08T03:24:38;100190.16;;;17.05;74.17
61026;BME280;46911;32.650;-16.902;2022-12-08T03:28:52;100173.72;;;17.16;71.88
61026;BME280;46911;32.650;-16.902;2022-12-08T03:30:58;100175.25;;;17.19;71.59
61026;BME280;46911;32.650;-16.902;2022-12-08T03:33:05;100183.34;;;17.27;71.20
61026;BME280;46911;32.650;-16.902;2022-12-08T03:35:30;100189.47;;;17.37;70.78
61026;BME280;46911;32.650;-16.902;2022-12-08T03:37:37;100185.66;;;17.48;69.83
61026;BME280;46911;32.650;-16.902;2022-12-08T03:39:38;100165.56;;;17.43;68.95
61026;BME280;46911;32.650;-16.902;2022-12-08T03:41:39;100157.50;;;17.43;69.73
61026;BME280;46911;32.650;-16.902;2022-12-08T03:43:40;100158.31;;;17.43;68.93
61026;BME280;46911;32.650;-16.902;2022-12-08T03:45:46;100168.47;;;17.49;69.28
61026;BME280;46911;32.650;-16.902;2022-12-08T03:47:47;100157.69;;;17.57;69.29
61026;BME280;46911;32.650;-16.902;2022-12-08T03:49:51;100168.66;;;17.56;69.53
61026;BME280;46911;32.650;-16.902;2022-12-08T03:51:52;100134.88;;;17.44;68.98
61026;BME280;46911;32.650;-16.902;2022-12-08T03:53:55;100143.03;;;17.52;69.60
61026;BME280;46911;32.650;-16.902;2022-12-08T03:55:59;100154.47;;;17.46;69.00
61026;BME280;46911;32.650;-16.902;2022-12-08T03:58:00;100165.75;;;17.41;69.06
61026;BME280;46911;32.650;-16.902;2022-12-08T04:00:06;100151.03;;;17.35;66.23
61026;BME280;46911;32.650;-16.902;2022-12-08T04:02:07;100154.25;;;17.39;65.28
61026;BME280;46911;32.650;-16.902;2022-12-08T04:04:08;100163.72;;;17.43;65.66
61026;BME280;46911;32.650;-16.902;2022-12-08T04:06:14;100171.63;;;17.45;64.37
61026;BME280;46911;32.650;-16.902;2022-12-08T04:08:15;100147.38;;;17.45;63.72
61026;BME280;46911;32.650;-16.902;2022-12-08T04:10:20;100164.75;;;17.50;64.45
61026;BME280;46911;32.650;-16.902;2022-12-08T04:12:21;100164.53;;;17.44;65.18
61026;BME280;46911;32.650;-16.902;2022-12-08T04:14:22;100169.47;;;17.48;64.95
61026;BME280;46911;32.650;-16.902;2022-12-08T04:16:24;100156.63;;;17.42;65.59
61026;BME280;46911;32.650;-16.902;2022-12-08T04:18:27;100160.47;;;17.31;66.15
61026;BME280;46911;32.650;-16.902;2022-12-08T04:20:33;100156.84;;;17.14;67.14
61026;BME280;46911;32.650;-16.902;2022-12-08T04:22:34;100158.03;;;17.12;67.18
61026;BME280;46911;32.650;-16.902;2022-12-08T04:24:35;100160.72;;;17.12;67.42
61026;BME280;46911;32.650;-16.902;2022-12-08T04:26:40;100154.03;;;17.24;67.23
61026;BME280;46911;32.650;-16.902;2022-12-08T04:28:41;100154.91;;;17.33;67.37
61026;BME280;46911;32.650;-16.902;2022-12-08T04:30:47;100154.63;;;17.44;67.22
61026;BME280;46911;32.650;-16.902;2022-12-08T04:32:51;100153.09;;;17.42;67.55
61026;BME280;46911;32.650;-16.902;2022-12-08T04:34:57;100129.38;;;17.53;67.81
61026;BME280;46911;32.650;-16.902;2022-12-08T04:36:58;100154.97;;;17.49;68.03
61026;BME280;46911;32.650;-16.902;2022-12-08T04:39:02;100149.25;;;17.52;67.29
61026;BME280;46911;32.650;-16.902;2022-12-08T04:41:05;100151.44;;;17.57;67.48
61026;BME280;46911;32.650;-16.902;2022-12-08T04:43:08;100142.84;;;17.45;68.12
61026;BME280;46911;32.650;-16.902;2022-12-08T04:45:12;100159.16;;;17.44;68.98
61026;BME280;46911;32.650;-16.902;2022-12-08T04:47:13;100147.31;;;17.28;69.53
61026;BME280;46911;32.650;-16.902;2022-12-08T04:52:32;100164.66;;;17.26;69.49
61026;BME280;46911;32.650;-16.902;2022-12-08T04:54:33;100142.25;;;17.25;69.88
61026;BME280;46911;32.650;-16.902;2022-12-08T04:56:34;100160.94;;;17.18;70.25
61026;BME280;46911;32.650;-16.902;2022-12-08T04:58:35;100140.63;;;17.06;70.36
61026;BME280;46911;32.650;-16.902;2022-12-08T05:00:35;100145.53;;;17.02;70.49
61026;BME280;46911;32.650;-16.902;2022-12-08T05:02:36;100155.78;;;16.99;69.98
61026;BME280;46911;32.650;-16.902;2022-12-08T05:04:37;100159.53;;;17.14;69.28
61026;BME280;46911;32.650;-16.902;2022-12-08T05:06:38;100144.34;;;17.05;68.87
61026;BME280;46911;32.650;-16.902;2022-12-08T05:08:40;100162.03;;;17.07;68.85
61026;BME280;46911;32.650;-16.902;2022-12-08T05:10:43;100149.88;;;17.03;68.11
61026;BME280;46911;32.650;-16.902;2022-12-08T05:12:44;100160.00;;;17.01;68.43
61026;BME280;46911;32.650;-16.902;2022-12-08T05:14:50;100161.31;;;16.97;67.63
61026;BME280;46911;32.650;-16.902;2022-12-08T05:16:51;100153.41;;;16.96;67.91
61026;BME280;46911;32.650;-16.902;2022-12-08T05:18:51;100168.03;;;16.93;68.28
61026;BME280;46911;32.650;-16.902;2022-12-08T05:20:52;100163.88;;;16.81;68.39
61026;BME280;46911;32.650;-16.902;2022-12-08T05:22:58;100175.81;;;16.78;68.48
61026;BME280;46911;32.650;-16.902;2022-12-08T05:24:59;100170.06;;;16.73;69.08
61026;BME280;46911;32.650;-16.902;2022-12-08T05:27:03;100167.38;;;16.73;69.16
61026;BME280;46911;32.650;-16.902;2022-12-08T05:29:06;100159.91;;;16.67;68.85
61026;BME280;46911;32.650;-16.902;2022-12-08T05:31:07;100173.75;;;16.72;69.15
61026;BME280;46911;32.650;-16.902;2022-12-08T05:33:08;100167.38;;;16.73;69.19
61026;BME280;46911;32.650;-16.902;2022-12-08T05:35:09;100181.84;;;16.72;69.61
61026;BME280;46911;32.650;-16.902;2022-12-08T05:37:10;100171.53;;;16.67;70.33
61026;BME280;46911;32.650;-16.902;2022-12-08T05:39:15;100170.53;;;16.68;70.63
61026;BME280;46911;32.650;-16.902;2022-12-08T05:41:18;100168.31;;;16.64;71.19
61026;BME280;46911;32.650;-16.902;2022-12-08T05:43:22;100168.03;;;16.75;71.37
61026;BME280;46911;32.650;-16.902;2022-12-08T05:45:22;100163.81;;;16.72;71.79
61026;BME280;46911;32.650;-16.902;2022-12-08T05:47:23;100175.59;;;16.71;71.99
61026;BME280;46911;32.650;-16.902;2022-12-08T05:49:24;100170.06;;;16.73;73.01
61026;BME280;46911;32.650;-16.902;2022-12-08T05:51:32;100156.91;;;16.70;73.02
61026;BME280;46911;32.650;-16.902;2022-12-08T05:53:33;100162.66;;;16.75;73.37
61026;BME280;46911;32.650;-16.902;2022-12-08T05:55:34;100167.50;;;16.71;73.60
61026;BME280;46911;32.650;-16.902;2022-12-08T05:57:37;100150.63;;;16.61;74.39
61026;BME280;46911;32.650;-16.902;2022-12-08T05:59:40;100169.69;;;16.68;74.42
61026;BME280;46911;32.650;-16.902;2022-12-08T06:01:41;100161.44;;;16.69;74.20
61026;BME280;46911;32.650;-16.902;2022-12-08T06:03:44;100158.59;;;16.71;73.57
61026;BME280;46911;32.650;-16.902;2022-12-08T06:05:45;100174.13;;;16.77;74.01
61026;BME280;46911;32.650;-16.902;2022-12-08T06:07:46;100162.00;;;16.73;74.18
61026;BME280;46911;32.650;-16.902;2022-12-08T06:09:47;100171.16;;;16.88;71.27
61026;BME280;46911;32.650;-16.902;2022-12-08T06:11:53;100155.84;;;16.89;70.45
61026;BME280;46911;32.650;-16.902;2022-12-08T06:13:58;100173.19;;;17.13;70.25
61026;BME280;46911;32.650;-16.902;2022-12-08T06:16:05;100155.00;;;17.15;69.42
61026;BME280;46911;32.650;-16.902;2022-12-08T06:18:07;100154.56;;;17.28;68.06
61026;BME280;46911;32.650;-16.902;2022-12-08T06:20:14;100171.53;;;17.54;67.04
61026;BME280;46911;32.650;-16.902;2022-12-08T06:22:17;100150.44;;;17.58;66.62
61026;BME280;46911;32.650;-16.902;2022-12-08T06:24:20;100161.78;;;17.70;66.82
61026;BME280;46911;32.650;-16.902;2022-12-08T06:26:21;100146.56;;;17.61;66.95
61026;BME280;46911;32.650;-16.902;2022-12-08T06:28:22;100161.06;;;17.60;66.95
61026;BME280;46911;32.650;-16.902;2022-12-08T06:30:26;100175.78;;;17.65;67.16
61026;BME280;46911;32.650;-16.902;2022-12-08T06:32:30;100171.19;;;17.57;67.84
61026;BME280;46911;32.650;-16.902;2022-12-08T06:34:31;100159.88;;;17.54;68.67
61026;BME280;46911;32.650;-16.902;2022-12-08T06:36:32;100165.97;;;17.64;68.01
61026;BME280;46911;32.650;-16.902;2022-12-08T06:38:34;100170.69;;;17.62;68.29
61026;BME280;46911;32.650;-16.902;2022-12-08T06:40:38;100178.47;;;17.73;67.71
61026;BME280;46911;32.650;-16.902;2022-12-08T06:42:39;100175.09;;;17.80;67.62
61026;BME280;46911;32.650;-16.902;2022-12-08T06:44:46;100156.91;;;17.82;67.78
61026;BME280;46911;32.650;-16.902;2022-12-08T06:46:50;100174.13;;;17.89;67.77
61026;BME280;46911;32.650;-16.902;2022-12-08T06:48:51;100171.16;;;17.92;67.44
61026;BME280;46911;32.650;-16.902;2022-12-08T06:50:51;100177.56;;;17.99;67.25
61026;BME280;46911;32.650;-16.902;2022-12-08T06:52:52;100186.16;;;18.03;67.81
61026;BME280;46911;32.650;-16.902;2022-12-08T06:54:53;100207.06;;;18.09;68.17
61026;BME280;46911;32.650;-16.902;2022-12-08T06:56:54;100191.72;;;18.01;69.10
61026;BME280;46911;32.650;-16.902;2022-12-08T06:59:00;100203.53;;;17.92;70.59
61026;BME280;46911;32.650;-16.902;2022-12-08T07:01:05;100204.66;;;17.81;71.26
61026;BME280;46911;32.650;-16.902;2022-12-08T07:03:10;100189.91;;;17.59;72.47
61026;BME280;46911;32.650;-16.902;2022-12-08T07:05:14;100204.53;;;17.56;73.02
61026;BME280;46911;32.650;-16.902;2022-12-08T07:07:14;100180.41;;;17.38;72.58
61026;BME280;46911;32.650;-16.902;2022-12-08T07:09:15;100192.22;;;17.46;72.85
61026;BME280;46911;32.650;-16.902;2022-12-08T07:11:19;100202.09;;;17.37;72.91
61026;BME280;46911;32.650;-16.902;2022-12-08T07:13:20;100204.09;;;17.27;73.68
61026;BME280;46911;32.650;-16.902;2022-12-08T07:15:24;100202.22;;;17.27;74.08
61026;BME280;46911;32.650;-16.902;2022-12-08T07:17:25;100207.63;;;17.27;74.62
61026;BME280;46911;32.650;-16.902;2022-12-08T07:19:28;100192.41;;;17.18;74.99
61026;BME280;46911;32.650;-16.902;2022-12-08T07:21:29;100189.72;;;17.18;74.26
61026;BME280;46911;32.650;-16.902;2022-12-08T07:23:33;100197.19;;;17.32;73.33
61026;BME280;46911;32.650;-16.902;2022-12-08T07:25:36;100201.78;;;17.40;73.05
61026;BME280;46911;32.650;-16.902;2022-12-08T07:27:37;100183.34;;;17.27;73.39
61026;BME280;46911;32.650;-16.902;2022-12-08T07:29:38;100188.28;;;17.32;73.05
61026;BME280;46911;32.650;-16.902;2022-12-08T07:31:41;100195.50;;;17.31;72.80
61026;BME280;46911;32.650;-16.902;2022-12-08T07:33:44;100185.88;;;17.29;73.28
61026;BME280;46911;32.650;-16.902;2022-12-08T07:35:56;100201.59;;;17.33;73.57
61026;BME280;46911;32.650;-16.902;2022-12-08T07:37:57;100189.75;;;17.26;73.35
61026;BME280;46911;32.650;-16.902;2022-12-08T07:39:58;100207.44;;;17.29;73.46
61026;BME280;46911;32.650;-16.902;2022-12-08T07:41:59;100216.25;;;17.31;73.50
61026;BME280;46911;32.650;-16.902;2022-12-08T07:44:02;100192.81;;;17.31;71.78
61026;BME280;46911;32.650;-16.902;2022-12-08T07:46:04;100191.81;;;17.32;71.77
61026;BME280;46911;32.650;-16.902;2022-12-08T07:48:05;100217.06;;;17.31;70.08
61026;BME280;46911;32.650;-16.902;2022-12-08T07:50:08;100203.09;;;17.28;69.46
61026;BME280;46911;32.650;-16.902;2022-12-08T07:52:12;100210.66;;;17.24;69.33
61026;BME280;46911;32.650;-16.902;2022-12-08T07:54:13;100215.06;;;17.33;67.96
61026;BME280;46911;32.650;-16.902;2022-12-08T07:56:14;100207.19;;;17.40;67.20
61026;BME280;46911;32.650;-16.902;2022-12-08T07:58:19;100205.88;;;17.52;66.78
61026;BME280;46911;32.650;-16.902;2022-12-08T08:00:20;100217.75;;;17.68;66.11
61026;BME280;46911;32.650;-16.902;2022-12-08T08:02:21;100218.44;;;17.78;66.08
61026;BME280;46911;32.650;-16.902;2022-12-08T08:04:24;100204.47;;;17.74;66.26
61026;BME280;46911;32.650;-16.902;2022-12-08T08:06:25;100213.75;;;17.80;66.12
61026;BME280;46911;32.650;-16.902;2022-12-08T08:08:25;100225.88;;;17.76;65.93
61026;BME280;46911;32.650;-16.902;2022-12-08T08:10:31;100204.75;;;17.63;66.22
61026;BME280;46911;32.650;-16.902;2022-12-08T08:12:32;100205.94;;;17.69;66.73
61026;BME280;46911;32.650;-16.902;2022-12-08T08:14:33;100219.97;;;17.81;66.64
61026;BME280;46911;32.650;-16.902;2022-12-08T08:16:35;100203.47;;;17.84;66.56
61026;BME280;46911;32.650;-16.902;2022-12-08T08:18:41;100216.97;;;17.84;66.55
61026;BME280;46911;32.650;-16.902;2022-12-08T08:20:45;100217.47;;;17.87;66.15
61026;BME280;46911;32.650;-16.902;2022-12-08T08:22:49;100199.09;;;17.83;66.78
61026;BME280;46911;32.650;-16.902;2022-12-08T08:24:53;100197.22;;;17.83;66.72
61026;BME280;46911;32.650;-16.902;2022-12-08T08:26:54;100211.91;;;17.89;67.02
61026;BME280;46911;32.650;-16.902;2022-12-08T08:28:55;100200.09;;;17.90;66.43
61026;BME280;46911;32.650;-16.902;2022-12-08T08:31:00;100207.78;;;18.11;65.49
61026;BME280;46911;32.650;-16.902;2022-12-08T08:33:06;100213.16;;;18.11;65.37
61026;BME280;46911;32.650;-16.902;2022-12-08T08:35:08;100213.34;;;18.18;65.50
61026;BME280;46911;32.650;-16.902;2022-12-08T08:37:09;100218.22;;;18.22;65.28
61026;BME280;46911;32.650;-16.902;2022-12-08T08:39:12;100215.22;;;18.26;64.78
61026;BME280;46911;32.650;-16.902;2022-12-08T08:41:13;100218.75;;;18.26;63.48
61026;BME280;46911;32.650;-16.902;2022-12-08T08:43:17;100219.09;;;18.31;63.50
61026;BME280;46911;32.650;-16.902;2022-12-08T08:45:36;100224.66;;;18.38;59.96
61026;BME280;46911;32.650;-16.902;2022-12-08T08:47:37;100224.50;;;18.48;59.47
61026;BME280;46911;32.650;-16.902;2022-12-08T08:49:38;100218.78;;;18.51;59.36
61026;BME280;46911;32.650;-16.902;2022-12-08T08:51:39;100228.56;;;18.60;59.18
61026;BME280;46911;32.650;-16.902;2022-12-08T08:53:40;100215.72;;;18.54;58.09
61026;BME280;46911;32.650;-16.902;2022-12-08T08:55:44;100214.53;;;18.65;57.82
61026;BME280;46911;32.650;-16.902;2022-12-08T08:57:45;100227.03;;;18.74;57.46
61026;BME280;46911;32.650;-16.902;2022-12-08T08:59:48;100228.38;;;18.86;57.01
61026;BME280;46911;32.650;-16.902;2022-12-08T09:01:49;100214.38;;;18.83;57.43
61026;BME280;46911;32.650;-16.902;2022-12-08T09:03:50;100228.22;;;18.80;57.95
61026;BME280;46911;32.650;-16.902;2022-12-08T09:05:51;100236.31;;;18.71;58.45
61026;BME280;46911;32.650;-16.902;2022-12-08T09:07:54;100241.06;;;18.69;58.68
61026;BME280;46911;32.650;-16.902;2022-12-08T09:09:56;100246.63;;;18.68;58.79
61026;BME280;46911;32.650;-16.902;2022-12-08T09:12:00;100236.34;;;18.55;59.14
61026;BME280;46911;32.650;-16.902;2022-12-08T09:14:00;100246.31;;;18.63;59.54
61026;BME280;46911;32.650;-16.902;2022-12-08T09:16:03;100258.44;;;18.75;59.33
61026;BME280;46911;32.650;-16.902;2022-12-08T09:18:07;100237.19;;;18.80;58.58
61026;BME280;46911;32.650;-16.902;2022-12-08T09:20:10;100249.53;;;18.91;58.34
61026;BME280;46911;32.650;-16.902;2022-12-08T09:22:13;100239.19;;;18.86;57.67
61026;BME280;46911;32.650;-16.902;2022-12-08T09:24:18;100249.97;;;19.19;57.52
61026;BME280;46911;32.650;-16.902;2022-12-08T09:26:19;100250.97;;;19.35;57.38
61026;BME280;46911;32.650;-16.902;2022-12-08T09:28:23;100271.19;;;19.55;55.52
61026;BME280;46911;32.650;-16.902;2022-12-08T09:30:27;100260.28;;;19.72;54.10
61026;BME280;46911;32.650;-16.902;2022-12-08T09:32:28;100275.16;;;19.76;54.02
61026;BME280;46911;32.650;-16.902;2022-12-08T09:34:29;100259.59;;;19.86;54.16
61026;BME280;46911;32.650;-16.902;2022-12-08T09:36:31;100266.41;;;20.05;53.04
61026;BME280;46911;32.650;-16.902;2022-12-08T09:38:31;100269.38;;;20.19;52.37
61026;BME280;46911;32.650;-16.902;2022-12-08T09:40:37;100257.78;;;20.33;53.14
61026;BME280;46911;32.650;-16.902;2022-12-08T09:45:12;100276.03;;;20.63;52.53
61026;BME280;46911;32.650;-16.902;2022-12-08T09:49:22;100277.97;;;20.54;53.03
61026;BME280;46911;32.650;-16.902;2022-12-08T09:51:39;100279.13;;;20.60;53.38
61026;BME280;46911;32.650;-16.902;2022-12-08T09:53:45;100281.22;;;20.49;53.19
61026;BME280;46911;32.650;-16.902;2022-12-08T09:56:08;100305.28;;;20.76;53.56
61026;BME280;46911;32.650;-16.902;2022-12-08T09:58:21;100300.25;;;20.72;52.82
61026;BME280;46911;32.650;-16.902;2022-12-08T10:00:25;100319.50;;;21.01;53.36
61026;BME280;46911;32.650;-16.902;2022-12-08T10:02:28;100296.47;;;20.97;52.46
61026;BME280;46911;32.650;-16.902;2022-12-08T10:04:35;100298.06;;;21.59;51.98
61026;BME280;46911;32.650;-16.902;2022-12-08T10:06:41;100307.41;;;22.01;51.96
61026;BME280;46911;32.650;-16.902;2022-12-08T10:11:20;100316.34;;;21.65;54.55
61026;BME280;46911;32.650;-16.902;2022-12-08T10:13:46;100323.44;;;21.13;56.43
61026;BME280;46911;32.650;-16.902;2022-12-08T10:20:17;100341.63;;;21.81;57.33
61026;BME280;46911;32.650;-16.902;2022-12-08T10:22:24;100346.13;;;22.77;53.74
61026;BME280;46911;32.650;-16.902;2022-12-08T10:24:35;100339.28;;;23.59;52.17
61026;BME280;46911;32.650;-16.902;2022-12-08T10:26:42;100338.63;;;23.85;50.94
61026;BME280;46911;32.650;-16.902;2022-12-08T10:28:45;100342.88;;;23.31;52.02
61026;BME280;46911;32.650;-16.902;2022-12-08T10:30:49;100333.88;;;23.66;50.47
61026;BME280;46911;32.650;-16.902;2022-12-08T10:32:52;100340.06;;;24.16;48.98
61026;BME280;46911;32.650;-16.902;2022-12-08T10:37:07;100342.13;;;25.77;44.40
61026;BME280;46911;32.650;-16.902;2022-12-08T10:41:28;100349.66;;;25.88;43.97
61026;BME280;46911;32.650;-16.902;2022-12-08T10:43:30;100351.44;;;25.42;44.13
61026;BME280;46911;32.650;-16.902;2022-12-08T10:45:38;100334.00;;;25.03;44.94
61026;BME280;46911;32.650;-16.902;2022-12-08T10:48:00;100316.75;;;24.07;46.50
61026;BME280;46911;32.650;-16.902;2022-12-08T10:52:24;100328.69;;;22.93;49.66
61026;BME280;46911;32.650;-16.902;2022-12-08T10:54:34;100351.56;;;22.77;50.73
61026;BME280;46911;32.650;-16.902;2022-12-08T10:56:37;100355.97;;;22.78;50.30
61026;BME280;46911;32.650;-16.902;2022-12-08T10:58:42;100341.41;;;22.64;49.51
61026;BME280;46911;32.650;-16.902;2022-12-08T11:00:46;100345.00;;;22.34;50.36
61026;BME280;46911;32.650;-16.902;2022-12-08T11:04:57;100348.91;;;23.27;49.29
61026;BME280;46911;32.650;-16.902;2022-12-08T11:07:03;100348.66;;;24.13;47.71
61026;BME280;46911;32.650;-16.902;2022-12-08T11:11:15;100359.31;;;25.90;41.97
61026;BME280;46911;32.650;-16.902;2022-12-08T11:13:26;100361.41;;;26.02;41.05
61026;BME280;46911;32.650;-16.902;2022-12-08T11:15:34;100345.94;;;25.22;42.17
61026;BME280;46911;32.650;-16.902;2022-12-08T11:17:40;100353.22;;;24.68;44.47
61026;BME280;46911;32.650;-16.902;2022-12-08T11:20:37;100338.16;;;24.17;44.85
61026;BME280;46911;32.650;-16.902;2022-12-08T11:22:24;100346.44;;;23.32;46.62
61026;BME280;46911;32.650;-16.902;2022-12-08T11:24:28;100327.47;;;22.95;48.10
61026;BME280;46911;32.650;-16.902;2022-12-08T11:26:31;100336.19;;;22.47;49.64
61026;BME280;46911;32.650;-16.902;2022-12-08T11:28:35;100353.28;;;22.41;50.06
61026;BME280;46911;32.650;-16.902;2022-12-08T11:30:43;100340.38;;;22.13;51.37